sensor_id;sensor_type;location;lat;lon;timestamp;temperature;humidity
10986;DHT22;5546;48.714;8.738;2023-07-16T00:01:52;22.50;99.90
10986;DHT22;5546;48.714;8.738;2023-07-16T00:04:17;22.50;99.90
10986;DHT22;5546;48.714;8.738;2023-07-16T00:09:09;22.30;99.90
10986;DHT22;5546;48.714;8.738;2023-07-16T00:11:34;22.20;99.90
10986;DHT22;5546;48.714;8.738;2023-07-16T00:14:00;21.90;99.90
10986;DHT22;5546;48.714;8.738;2023-07-16T00:23:45;21.50;99.90
10986;DHT22;5546;48.714;8.738;2023-07-16T00:26:12;21.60;99.90
10986;DHT22;5546;48.714;8.738;2023-07-16T00:28:37;21.60;99.90
10986;DHT22;5546;48.714;8.738;2023-07-16T00:33:29;21.40;99.90
10986;DHT22;5546;48.714;8.738;2023-07-16T00:35:54;21.40;99.90
10986;DHT22;5546;48.714;8.738;2023-07-16T00:40:47;21.30;99.90
10986;DHT22;5546;48.714;8.738;2023-07-16T00:43:13;21.50;99.90
10986;DHT22;5546;48.714;8.738;2023-07-16T00:45:40;21.50;99.90
10986;DHT22;5546;48.714;8.738;2023-07-16T00:48:06;21.20;99.90
10986;DHT22;5546;48.714;8.738;2023-07-16T00:50:34;21.00;99.90
10986;DHT22;5546;48.714;8.738;2023-07-16T00:53:14;20.90;99.90
10986;DHT22;5546;48.714;8.738;2023-07-16T00:55:39;21.10;99.90
10986;DHT22;5546;48.714;8.738;2023-07-16T00:58:06;20.90;99.90
10986;DHT22;5546;48.714;8.738;2023-07-16T01:00:35;20.50;99.90
10986;DHT22;5546;48.714;8.738;2023-07-16T01:03:06;20.70;99.90
10986;DHT22;5546;48.714;8.738;2023-07-16T01:05:55;20.60;99.90
10986;DHT22;5546;48.714;8.738;2023-07-16T01:08:35;20.30;99.90
10986;DHT22;5546;48.714;8.738;2023-07-16T01:11:04;20.40;99.90
10986;DHT22;5546;48.714;8.738;2023-07-16T01:13:30;20.20;99.90
10986;DHT22;5546;48.714;8.738;2023-07-16T01:18:21;20.20;99.90
10986;DHT22;5546;48.714;8.738;2023-07-16T01:20:47;20.20;99.90
10986;DHT22;5546;48.714;8.738;2023-07-16T01:29:13;20.40;99.90
10986;DHT22;5546;48.714;8.738;2023-07-16T01:31:45;20.40;99.90
10986;DHT22;5546;48.714;8.738;2023-07-16T01:36:39;20.50;99.90
10986;DHT22;5546;48.714;8.738;2023-07-16T01:39:05;20.60;99.90
10986;DHT22;5546;48.714;8.738;2023-07-16T01:43:57;20.50;99.90
10986;DHT22;5546;48.714;8.738;2023-07-16T01:46:22;20.60;99.90
10986;DHT22;5546;48.714;8.738;2023-07-16T01:48:48;20.70;99.90
10986;DHT22;5546;48.714;8.738;2023-07-16T01:51:20;20.60;99.90
10986;DHT22;5546;48.714;8.738;2023-07-16T01:53:45;20.50;99.90
10986;DHT22;5546;48.714;8.738;2023-07-16T01:56:12;20.40;99.90
10986;DHT22;5546;48.714;8.738;2023-07-16T02:03:30;20.50;99.90
10986;DHT22;5546;48.714;8.738;2023-07-16T02:10:48;20.70;99.90
10986;DHT22;5546;48.714;8.738;2023-07-16T02:18:06;20.90;99.90
10986;DHT22;5546;48.714;8.738;2023-07-16T02:20:31;20.80;99.90
10986;DHT22;5546;48.714;8.738;2023-07-16T02:22:57;21.00;99.90
10986;DHT22;5546;48.714;8.738;2023-07-16T02:25:22;21.10;99.90
10986;DHT22;5546;48.714;8.738;2023-07-16T02:27:48;20.80;99.90
10986;DHT22;5546;48.714;8.738;2023-07-16T02:30:15;20.70;99.90
10986;DHT22;5546;48.714;8.738;2023-07-16T02:32:40;20.80;99.90
10986;DHT22;5546;48.714;8.738;2023-07-16T02:39:58;20.70;99.90
10986;DHT22;5546;48.714;8.738;2023-07-16T02:42:24;20.90;99.90
10986;DHT22;5546;48.714;8.738;2023-07-16T02:52:08;20.80;99.90
10986;DHT22;5546;48.714;8.738;2023-07-16T02:54:35;20.70;99.90
10986;DHT22;5546;48.714;8.738;2023-07-16T02:57:00;20.60;99.90
10986;DHT22;5546;48.714;8.738;2023-07-16T03:01:52;20.80;99.90
10986;DHT22;5546;48.714;8.738;2023-07-16T03:04:19;20.70;99.90
10986;DHT22;5546;48.714;8.738;2023-07-16T03:06:44;20.80;99.90
10986;DHT22;5546;48.714;8.738;2023-07-16T03:11:36;20.80;99.90
10986;DHT22;5546;48.714;8.738;2023-07-16T03:14:01;20.70;99.90
10986;DHT22;5546;48.714;8.738;2023-07-16T03:18:53;20.00;99.90
10986;DHT22;5546;48.714;8.738;2023-07-16T03:21:18;20.10;99.90
10986;DHT22;5546;48.714;8.738;2023-07-16T03:33:28;20.60;99.90
10986;DHT22;5546;48.714;8.738;2023-07-16T03:35:53;20.70;99.90
10986;DHT22;5546;48.714;8.738;2023-07-16T03:40:49;20.80;99.90
10986;DHT22;5546;48.714;8.738;2023-07-16T03:43:18;20.40;99.90
10986;DHT22;5546;48.714;8.738;2023-07-16T03:45:43;20.40;99.90
10986;DHT22;5546;48.714;8.738;2023-07-16T03:48:09;20.50;99.90
10986;DHT22;5546;48.714;8.738;2023-07-16T03:50:35;20.50;99.90
10986;DHT22;5546;48.714;8.738;2023-07-16T03:53:01;20.00;99.90
10986;DHT22;5546;48.714;8.738;2023-07-16T03:55:28;19.60;99.90
10986;DHT22;5546;48.714;8.738;2023-07-16T04:10:04;20.10;99.90
10986;DHT22;5546;48.714;8.738;2023-07-16T04:14:57;20.60;99.90
10986;DHT22;5546;48.714;8.738;2023-07-16T04:17:24;20.60;99.90
10986;DHT22;5546;48.714;8.738;2023-07-16T04:19:49;20.70;99.90
10986;DHT22;5546;48.714;8.738;2023-07-16T04:22:15;20.90;99.90
10986;DHT22;5546;48.714;8.738;2023-07-16T04:24:41;20.80;99.90
10986;DHT22;5546;48.714;8.738;2023-07-16T04:27:06;20.50;99.90
10986;DHT22;5546;48.714;8.738;2023-07-16T04:58:43;19.60;99.90
10986;DHT22;5546;48.714;8.738;2023-07-16T05:01:09;19.80;99.90
10986;DHT22;5546;48.714;8.738;2023-07-16T05:03:36;20.00;99.90
10986;DHT22;5546;48.714;8.738;2023-07-16T05:06:02;20.40;99.90
10986;DHT22;5546;48.714;8.738;2023-07-16T05:08:27;20.70;99.90
10986;DHT22;5546;48.714;8.738;2023-07-16T05:10:53;20.90;99.90
10986;DHT22;5546;48.714;8.738;2023-07-16T05:13:18;21.10;99.90
10986;DHT22;5546;48.714;8.738;2023-07-16T05:15:44;21.40;99.90
10986;DHT22;5546;48.714;8.738;2023-07-16T05:18:10;21.60;99.90
10986;DHT22;5546;48.714;8.738;2023-07-16T05:20:35;21.80;99.90
10986;DHT22;5546;48.714;8.738;2023-07-16T05:23:01;21.80;99.90
10986;DHT22;5546;48.714;8.738;2023-07-16T05:25:26;21.80;99.90
10986;DHT22;5546;48.714;8.738;2023-07-16T05:27:52;21.80;99.90
10986;DHT22;5546;48.714;8.738;2023-07-16T05:30:18;21.90;99.90
10986;DHT22;5546;48.714;8.738;2023-07-16T05:32:43;22.00;99.90
10986;DHT22;5546;48.714;8.738;2023-07-16T05:35:09;21.80;99.90
10986;DHT22;5546;48.714;8.738;2023-07-16T05:37:34;21.80;99.90
10986;DHT22;5546;48.714;8.738;2023-07-16T05:40:00;21.50;99.90
10986;DHT22;5546;48.714;8.738;2023-07-16T05:42:26;21.40;99.90
10986;DHT22;5546;48.714;8.738;2023-07-16T05:44:51;21.20;99.90
10986;DHT22;5546;48.714;8.738;2023-07-16T05:47:17;20.70;99.90
10986;DHT22;5546;48.714;8.738;2023-07-16T05:49:42;20.50;99.90
10986;DHT22;5546;48.714;8.738;2023-07-16T05:52:08;20.70;99.90
10986;DHT22;5546;48.714;8.738;2023-07-16T05:54:34;20.90;99.90
10986;DHT22;5546;48.714;8.738;2023-07-16T05:59:26;21.50;99.90
10986;DHT22;5546;48.714;8.738;2023-07-16T06:01:51;21.60;99.90
10986;DHT22;5546;48.714;8.738;2023-07-16T06:04:17;21.70;99.90
10986;DHT22;5546;48.714;8.738;2023-07-16T06:06:43;21.90;99.90
10986;DHT22;5546;48.714;8.738;2023-07-16T06:11:34;22.10;99.90
10986;DHT22;5546;48.714;8.738;2023-07-16T06:16:26;22.20;99.90
10986;DHT22;5546;48.714;8.738;2023-07-16T06:18:51;22.30;99.90
10986;DHT22;5546;48.714;8.738;2023-07-16T06:21:17;22.50;99.90
10986;DHT22;5546;48.714;8.738;2023-07-16T06:23:43;22.20;99.90
10986;DHT22;5546;48.714;8.738;2023-07-16T06:26:08;21.80;99.90
10986;DHT22;5546;48.714;8.738;2023-07-16T06:28:34;21.50;99.90
10986;DHT22;5546;48.714;8.738;2023-07-16T06:33:25;21.60;99.90
10986;DHT22;5546;48.714;8.738;2023-07-16T06:35:52;21.90;99.90
10986;DHT22;5546;48.714;8.738;2023-07-16T06:40:48;22.20;99.90
10986;DHT22;5546;48.714;8.738;2023-07-16T06:45:40;22.20;99.90
10986;DHT22;5546;48.714;8.738;2023-07-16T06:48:06;21.90;99.90
10986;DHT22;5546;48.714;8.738;2023-07-16T06:50:31;22.20;99.90
10986;DHT22;5546;48.714;8.738;2023-07-16T06:52:57;22.60;99.60
10986;DHT22;5546;48.714;8.738;2023-07-16T06:55:22;22.60;99.60
10986;DHT22;5546;48.714;8.738;2023-07-16T06:57:48;22.50;99.30
10986;DHT22;5546;48.714;8.738;2023-07-16T07:00:13;22.80;99.00
10986;DHT22;5546;48.714;8.738;2023-07-16T07:02:39;22.80;97.90
10986;DHT22;5546;48.714;8.738;2023-07-16T07:05:05;23.10;97.40
10986;DHT22;5546;48.714;8.738;2023-07-16T07:07:30;23.20;97.20
10986;DHT22;5546;48.714;8.738;2023-07-16T07:09:56;22.90;97.40
10986;DHT22;5546;48.714;8.738;2023-07-16T07:12:21;22.60;97.10
10986;DHT22;5546;48.714;8.738;2023-07-16T07:14:47;22.00;98.40
10986;DHT22;5546;48.714;8.738;2023-07-16T07:17:13;21.60;98.90
10986;DHT22;5546;48.714;8.738;2023-07-16T07:19:39;21.90;98.70
10986;DHT22;5546;48.714;8.738;2023-07-16T07:22:05;21.90;98.60
10986;DHT22;5546;48.714;8.738;2023-07-16T07:24:30;22.10;98.20
10986;DHT22;5546;48.714;8.738;2023-07-16T07:29:22;21.80;98.00
10986;DHT22;5546;48.714;8.738;2023-07-16T07:31:47;22.00;98.40
10986;DHT22;5546;48.714;8.738;2023-07-16T07:34:13;22.60;97.80
10986;DHT22;5546;48.714;8.738;2023-07-16T07:36:38;23.10;97.20
10986;DHT22;5546;48.714;8.738;2023-07-16T07:39:04;23.10;97.90
10986;DHT22;5546;48.714;8.738;2023-07-16T07:41:29;23.60;96.30
10986;DHT22;5546;48.714;8.738;2023-07-16T07:43:55;24.10;95.40
10986;DHT22;5546;48.714;8.738;2023-07-16T07:46:20;23.60;95.00
10986;DHT22;5546;48.714;8.738;2023-07-16T07:48:46;22.90;96.10
10986;DHT22;5546;48.714;8.738;2023-07-16T07:51:11;23.30;96.70
10986;DHT22;5546;48.714;8.738;2023-07-16T07:53:38;23.60;95.40
10986;DHT22;5546;48.714;8.738;2023-07-16T07:56:04;24.10;95.50
10986;DHT22;5546;48.714;8.738;2023-07-16T07:58:29;24.10;95.80
10986;DHT22;5546;48.714;8.738;2023-07-16T08:00:55;22.80;95.30
10986;DHT22;5546;48.714;8.738;2023-07-16T08:03:20;23.00;95.70
10986;DHT22;5546;48.714;8.738;2023-07-16T08:05:49;23.00;95.60
10986;DHT22;5546;48.714;8.738;2023-07-16T08:08:14;23.10;96.00
10986;DHT22;5546;48.714;8.738;2023-07-16T08:10:40;23.30;95.50
10986;DHT22;5546;48.714;8.738;2023-07-16T08:13:06;24.00;95.20
10986;DHT22;5546;48.714;8.738;2023-07-16T08:15:31;24.10;95.30
10986;DHT22;5546;48.714;8.738;2023-07-16T08:17:57;24.90;93.20
10986;DHT22;5546;48.714;8.738;2023-07-16T08:20:25;25.40;92.30
10986;DHT22;5546;48.714;8.738;2023-07-16T08:22:50;25.30;92.00
10986;DHT22;5546;48.714;8.738;2023-07-16T08:25:16;24.50;92.20
10986;DHT22;5546;48.714;8.738;2023-07-16T08:27:42;24.30;92.50
10986;DHT22;5546;48.714;8.738;2023-07-16T08:30:08;24.20;92.70
10986;DHT22;5546;48.714;8.738;2023-07-16T08:32:33;24.10;92.30
10986;DHT22;5546;48.714;8.738;2023-07-16T08:35:00;24.60;91.70
10986;DHT22;5546;48.714;8.738;2023-07-16T08:37:25;24.60;92.00
10986;DHT22;5546;48.714;8.738;2023-07-16T08:39:52;24.60;92.20
10986;DHT22;5546;48.714;8.738;2023-07-16T08:42:19;25.40;90.60
10986;DHT22;5546;48.714;8.738;2023-07-16T08:44:45;24.40;89.70
10986;DHT22;5546;48.714;8.738;2023-07-16T08:47:11;24.20;90.40
10986;DHT22;5546;48.714;8.738;2023-07-16T08:49:39;23.60;90.70
10986;DHT22;5546;48.714;8.738;2023-07-16T08:52:06;23.40;91.60
10986;DHT22;5546;48.714;8.738;2023-07-16T08:54:33;23.50;91.80
10986;DHT22;5546;48.714;8.738;2023-07-16T08:56:59;24.00;90.70
10986;DHT22;5546;48.714;8.738;2023-07-16T08:59:26;23.90;90.80
10986;DHT22;5546;48.714;8.738;2023-07-16T09:01:52;24.10;91.00
10986;DHT22;5546;48.714;8.738;2023-07-16T09:04:17;24.40;90.60
10986;DHT22;5546;48.714;8.738;2023-07-16T09:06:44;24.80;91.90
10986;DHT22;5546;48.714;8.738;2023-07-16T09:09:22;25.90;92.80
10986;DHT22;5546;48.714;8.738;2023-07-16T09:11:48;28.10;88.40
10986;DHT22;5546;48.714;8.738;2023-07-16T09:14:18;29.80;77.00
10986;DHT22;5546;48.714;8.738;2023-07-16T09:16:50;31.70;71.40
10986;DHT22;5546;48.714;8.738;2023-07-16T09:19:16;33.00;64.00
10986;DHT22;5546;48.714;8.738;2023-07-16T09:21:49;31.70;61.00
10986;DHT22;5546;48.714;8.738;2023-07-16T09:24:15;31.20;65.00
10986;DHT22;5546;48.714;8.738;2023-07-16T09:26:48;30.10;65.00
10986;DHT22;5546;48.714;8.738;2023-07-16T09:29:15;29.40;68.20
10986;DHT22;5546;48.714;8.738;2023-07-16T09:31:54;28.20;68.50
10986;DHT22;5546;48.714;8.738;2023-07-16T09:34:20;27.90;71.20
10986;DHT22;5546;48.714;8.738;2023-07-16T09:36:49;28.10;70.80
10986;DHT22;5546;48.714;8.738;2023-07-16T09:39:18;27.00;73.50
10986;DHT22;5546;48.714;8.738;2023-07-16T09:41:48;27.60;71.90
10986;DHT22;5546;48.714;8.738;2023-07-16T09:44:14;28.00;71.00
10986;DHT22;5546;48.714;8.738;2023-07-16T09:46:40;28.50;67.80
10986;DHT22;5546;48.714;8.738;2023-07-16T09:49:07;29.30;66.90
10986;DHT22;5546;48.714;8.738;2023-07-16T09:51:37;30.60;62.60
10986;DHT22;5546;48.714;8.738;2023-07-16T09:54:03;31.20;61.50
10986;DHT22;5546;48.714;8.738;2023-07-16T09:56:45;30.30;62.10
10986;DHT22;5546;48.714;8.738;2023-07-16T09:59:17;29.20;64.60
10986;DHT22;5546;48.714;8.738;2023-07-16T10:01:43;29.50;61.80
10986;DHT22;5546;48.714;8.738;2023-07-16T10:04:19;30.50;59.80
10986;DHT22;5546;48.714;8.738;2023-07-16T10:09:38;30.50;60.00
10986;DHT22;5546;48.714;8.738;2023-07-16T10:12:11;31.20;59.10
10986;DHT22;5546;48.714;8.738;2023-07-16T10:14:43;30.40;59.50
10986;DHT22;5546;48.714;8.738;2023-07-16T10:17:16;31.00;58.60
10986;DHT22;5546;48.714;8.738;2023-07-16T10:22:13;32.70;55.20
10986;DHT22;5546;48.714;8.738;2023-07-16T10:24:39;34.10;53.60
10986;DHT22;5546;48.714;8.738;2023-07-16T10:27:05;34.90;51.20
10986;DHT22;5546;48.714;8.738;2023-07-16T10:29:31;32.70;52.80
10986;DHT22;5546;48.714;8.738;2023-07-16T10:31:58;32.50;53.80
10986;DHT22;5546;48.714;8.738;2023-07-16T10:34:24;32.40;54.20
10986;DHT22;5546;48.714;8.738;2023-07-16T10:36:51;32.80;52.80
10986;DHT22;5546;48.714;8.738;2023-07-16T10:39:17;30.60;56.50
10986;DHT22;5546;48.714;8.738;2023-07-16T10:41:42;31.50;56.50
10986;DHT22;5546;48.714;8.738;2023-07-16T10:44:08;32.90;54.50
10986;DHT22;5546;48.714;8.738;2023-07-16T10:46:36;33.30;53.50
10986;DHT22;5546;48.714;8.738;2023-07-16T10:49:02;33.20;52.90
10986;DHT22;5546;48.714;8.738;2023-07-16T10:51:28;32.80;53.10
10986;DHT22;5546;48.714;8.738;2023-07-16T10:53:57;32.40;55.40
10986;DHT22;5546;48.714;8.738;2023-07-16T10:56:23;32.20;54.80
10986;DHT22;5546;48.714;8.738;2023-07-16T10:58:48;31.70;55.00
10986;DHT22;5546;48.714;8.738;2023-07-16T11:01:14;32.00;54.80
10986;DHT22;5546;48.714;8.738;2023-07-16T11:03:40;31.70;54.20
10986;DHT22;5546;48.714;8.738;2023-07-16T11:06:06;31.50;55.40
10986;DHT22;5546;48.714;8.738;2023-07-16T11:08:32;30.20;57.10
10986;DHT22;5546;48.714;8.738;2023-07-16T11:10:58;29.80;58.10
10986;DHT22;5546;48.714;8.738;2023-07-16T11:13:43;30.00;56.80
10986;DHT22;5546;48.714;8.738;2023-07-16T11:16:10;29.90;57.60
10986;DHT22;5546;48.714;8.738;2023-07-16T11:18:36;30.10;56.80
10986;DHT22;5546;48.714;8.738;2023-07-16T11:21:01;29.30;58.10
10986;DHT22;5546;48.714;8.738;2023-07-16T11:23:28;29.00;58.40
10986;DHT22;5546;48.714;8.738;2023-07-16T11:25:53;28.60;57.80
10986;DHT22;5546;48.714;8.738;2023-07-16T11:28:19;28.20;59.20
10986;DHT22;5546;48.714;8.738;2023-07-16T11:30:45;28.30;59.70
10986;DHT22;5546;48.714;8.738;2023-07-16T11:33:11;29.20;59.40
10986;DHT22;5546;48.714;8.738;2023-07-16T11:35:37;31.20;57.10
10986;DHT22;5546;48.714;8.738;2023-07-16T11:38:06;33.30;51.90
10986;DHT22;5546;48.714;8.738;2023-07-16T11:40:34;34.00;49.80
10986;DHT22;5546;48.714;8.738;2023-07-16T11:43:08;34.40;48.40
10986;DHT22;5546;48.714;8.738;2023-07-16T11:45:34;35.00;48.20
10986;DHT22;5546;48.714;8.738;2023-07-16T11:47:59;35.80;47.10
10986;DHT22;5546;48.714;8.738;2023-07-16T11:50:25;35.00;46.70
10986;DHT22;5546;48.714;8.738;2023-07-16T11:52:56;35.10;46.90
10986;DHT22;5546;48.714;8.738;2023-07-16T11:55:22;34.10;47.60
10986;DHT22;5546;48.714;8.738;2023-07-16T11:57:47;33.50;50.20
10986;DHT22;5546;48.714;8.738;2023-07-16T12:00:13;33.40;48.70
10986;DHT22;5546;48.714;8.738;2023-07-16T12:02:39;33.30;49.40
10986;DHT22;5546;48.714;8.738;2023-07-16T12:05:04;33.70;48.90
10986;DHT22;5546;48.714;8.738;2023-07-16T12:07:39;32.80;50.10
10986;DHT22;5546;48.714;8.738;2023-07-16T12:10:06;32.50;50.50
10986;DHT22;5546;48.714;8.738;2023-07-16T12:12:32;33.30;49.40
10986;DHT22;5546;48.714;8.738;2023-07-16T12:14:59;33.30;48.80
10986;DHT22;5546;48.714;8.738;2023-07-16T12:17:25;34.20;47.50
10986;DHT22;5546;48.714;8.738;2023-07-16T12:19:50;35.80;46.20
10986;DHT22;5546;48.714;8.738;2023-07-16T12:22:17;37.20;45.50
10986;DHT22;5546;48.714;8.738;2023-07-16T12:24:43;38.60;41.30
10986;DHT22;5546;48.714;8.738;2023-07-16T12:27:09;38.10;41.40
10986;DHT22;5546;48.714;8.738;2023-07-16T12:29:34;39.00;41.40
10986;DHT22;5546;48.714;8.738;2023-07-16T12:32:00;38.90;40.40
10986;DHT22;5546;48.714;8.738;2023-07-16T12:37:05;40.20;38.10
10986;DHT22;5546;48.714;8.738;2023-07-16T12:39:53;40.10;37.40
10986;DHT22;5546;48.714;8.738;2023-07-16T12:42:20;38.40;39.50
10986;DHT22;5546;48.714;8.738;2023-07-16T12:47:58;38.90;38.30
10986;DHT22;5546;48.714;8.738;2023-07-16T12:51:00;38.80;39.10
10986;DHT22;5546;48.714;8.738;2023-07-16T12:53:46;39.20;37.50
10986;DHT22;5546;48.714;8.738;2023-07-16T12:56:22;37.50;39.50
10986;DHT22;5546;48.714;8.738;2023-07-16T12:58:58;37.50;39.40
10986;DHT22;5546;48.714;8.738;2023-07-16T13:01:24;37.80;39.40
10986;DHT22;5546;48.714;8.738;2023-07-16T13:04:35;36.40;40.30
10986;DHT22;5546;48.714;8.738;2023-07-16T13:06:57;36.50;40.50
10986;DHT22;5546;48.714;8.738;2023-07-16T13:09:28;36.40;40.00
10986;DHT22;5546;48.714;8.738;2023-07-16T13:12:03;36.70;40.00
10986;DHT22;5546;48.714;8.738;2023-07-16T13:15:10;38.10;37.90
10986;DHT22;5546;48.714;8.738;2023-07-16T13:17:36;39.90;37.30
10986;DHT22;5546;48.714;8.738;2023-07-16T13:20:03;38.20;37.30
10986;DHT22;5546;48.714;8.738;2023-07-16T13:22:43;36.90;39.70
10986;DHT22;5546;48.714;8.738;2023-07-16T13:25:08;36.30;39.10
10986;DHT22;5546;48.714;8.738;2023-07-16T13:27:34;37.40;38.50
10986;DHT22;5546;48.714;8.738;2023-07-16T13:30:03;38.40;37.50
10986;DHT22;5546;48.714;8.738;2023-07-16T13:32:29;37.90;36.40
10986;DHT22;5546;48.714;8.738;2023-07-16T13:35:39;36.30;38.10
10986;DHT22;5546;48.714;8.738;2023-07-16T13:38:25;34.30;42.20
10986;DHT22;5546;48.714;8.738;2023-07-16T13:40:50;35.90;40.90
10986;DHT22;5546;48.714;8.738;2023-07-16T13:43:16;37.20;39.30
10986;DHT22;5546;48.714;8.738;2023-07-16T13:45:44;37.60;39.20
10986;DHT22;5546;48.714;8.738;2023-07-16T13:48:31;38.80;37.40
10986;DHT22;5546;48.714;8.738;2023-07-16T13:50:59;39.70;36.30
10986;DHT22;5546;48.714;8.738;2023-07-16T13:53:25;39.20;37.00
10986;DHT22;5546;48.714;8.738;2023-07-16T13:55:50;38.70;37.50
10986;DHT22;5546;48.714;8.738;2023-07-16T13:58:16;37.80;36.90
10986;DHT22;5546;48.714;8.738;2023-07-16T14:00:42;35.70;38.70
10986;DHT22;5546;48.714;8.738;2023-07-16T14:03:07;33.40;42.70
10986;DHT22;5546;48.714;8.738;2023-07-16T14:05:33;33.00;43.80
10986;DHT22;5546;48.714;8.738;2023-07-16T14:08:04;32.50;44.50
10986;DHT22;5546;48.714;8.738;2023-07-16T14:10:30;32.60;44.60
10986;DHT22;5546;48.714;8.738;2023-07-16T14:12:56;32.70;44.40
10986;DHT22;5546;48.714;8.738;2023-07-16T14:15:22;32.80;44.60
10986;DHT22;5546;48.714;8.738;2023-07-16T14:17:47;33.90;43.20
10986;DHT22;5546;48.714;8.738;2023-07-16T14:20:13;35.50;41.50
10986;DHT22;5546;48.714;8.738;2023-07-16T14:22:39;35.50;40.20
10986;DHT22;5546;48.714;8.738;2023-07-16T14:25:05;34.50;41.80
10986;DHT22;5546;48.714;8.738;2023-07-16T14:27:30;34.30;41.80
10986;DHT22;5546;48.714;8.738;2023-07-16T14:30:01;33.80;43.10
10986;DHT22;5546;48.714;8.738;2023-07-16T14:32:26;33.00;45.70
10986;DHT22;5546;48.714;8.738;2023-07-16T14:34:52;32.70;43.80
10986;DHT22;5546;48.714;8.738;2023-07-16T14:37:18;32.30;47.30
10986;DHT22;5546;48.714;8.738;2023-07-16T14:39:44;32.00;46.30
10986;DHT22;5546;48.714;8.738;2023-07-16T14:42:09;31.50;46.60
10986;DHT22;5546;48.714;8.738;2023-07-16T14:44:48;31.20;47.90
10986;DHT22;5546;48.714;8.738;2023-07-16T14:47:40;30.40;47.30
10986;DHT22;5546;48.714;8.738;2023-07-16T14:50:06;30.50;48.50
10986;DHT22;5546;48.714;8.738;2023-07-16T14:52:44;31.60;51.10
10986;DHT22;5546;48.714;8.738;2023-07-16T14:55:18;33.80;44.40
10986;DHT22;5546;48.714;8.738;2023-07-16T14:57:44;35.20;44.30
10986;DHT22;5546;48.714;8.738;2023-07-16T15:00:10;35.10;39.60
10986;DHT22;5546;48.714;8.738;2023-07-16T15:02:57;34.90;40.30
10986;DHT22;5546;48.714;8.738;2023-07-16T15:05:25;33.80;41.70
10986;DHT22;5546;48.714;8.738;2023-07-16T15:07:51;32.50;43.80
10986;DHT22;5546;48.714;8.738;2023-07-16T15:10:16;31.50;45.10
10986;DHT22;5546;48.714;8.738;2023-07-16T15:12:42;31.50;50.00
10986;DHT22;5546;48.714;8.738;2023-07-16T15:15:07;30.90;49.70
10986;DHT22;5546;48.714;8.738;2023-07-16T15:17:36;30.40;47.80
10986;DHT22;5546;48.714;8.738;2023-07-16T15:20:01;30.10;48.30
10986;DHT22;5546;48.714;8.738;2023-07-16T15:22:27;30.40;48.10
10986;DHT22;5546;48.714;8.738;2023-07-16T15:24:52;30.00;49.80
10986;DHT22;5546;48.714;8.738;2023-07-16T15:27:18;30.20;49.60
10986;DHT22;5546;48.714;8.738;2023-07-16T15:29:43;30.50;51.20
10986;DHT22;5546;48.714;8.738;2023-07-16T15:32:09;30.70;53.90
10986;DHT22;5546;48.714;8.738;2023-07-16T15:34:34;30.50;55.80
10986;DHT22;5546;48.714;8.738;2023-07-16T15:37:00;30.50;51.90
10986;DHT22;5546;48.714;8.738;2023-07-16T15:39:26;30.60;49.10
10986;DHT22;5546;48.714;8.738;2023-07-16T15:42:08;30.80;47.90
10986;DHT22;5546;48.714;8.738;2023-07-16T15:44:33;30.60;52.50
10986;DHT22;5546;48.714;8.738;2023-07-16T15:46:59;30.00;48.70
10986;DHT22;5546;48.714;8.738;2023-07-16T15:49:25;29.90;50.70
10986;DHT22;5546;48.714;8.738;2023-07-16T15:51:51;29.00;50.00
10986;DHT22;5546;48.714;8.738;2023-07-16T15:54:17;29.40;50.90
10986;DHT22;5546;48.714;8.738;2023-07-16T15:56:43;29.60;50.90
10986;DHT22;5546;48.714;8.738;2023-07-16T15:59:08;29.80;48.70
10986;DHT22;5546;48.714;8.738;2023-07-16T16:01:34;29.80;49.10
10986;DHT22;5546;48.714;8.738;2023-07-16T16:03:59;30.00;49.60
10986;DHT22;5546;48.714;8.738;2023-07-16T16:06:25;30.40;48.50
10986;DHT22;5546;48.714;8.738;2023-07-16T16:08:50;30.50;52.90
10986;DHT22;5546;48.714;8.738;2023-07-16T16:11:16;30.60;49.00
10986;DHT22;5546;48.714;8.738;2023-07-16T16:13:42;30.80;48.60
10986;DHT22;5546;48.714;8.738;2023-07-16T16:16:08;30.80;49.20
10986;DHT22;5546;48.714;8.738;2023-07-16T16:18:34;31.00;48.30
10986;DHT22;5546;48.714;8.738;2023-07-16T16:21:00;30.30;48.70
10986;DHT22;5546;48.714;8.738;2023-07-16T16:23:25;30.40;49.30
10986;DHT22;5546;48.714;8.738;2023-07-16T16:25:51;30.50;51.00
10986;DHT22;5546;48.714;8.738;2023-07-16T16:28:17;29.70;50.00
10986;DHT22;5546;48.714;8.738;2023-07-16T16:30:42;29.60;50.50
10986;DHT22;5546;48.714;8.738;2023-07-16T16:33:08;30.30;50.00
10986;DHT22;5546;48.714;8.738;2023-07-16T16:35:39;30.20;50.10
10986;DHT22;5546;48.714;8.738;2023-07-16T16:38:06;30.40;51.00
10986;DHT22;5546;48.714;8.738;2023-07-16T16:40:32;29.80;50.50
10986;DHT22;5546;48.714;8.738;2023-07-16T16:42:57;29.90;51.00
10986;DHT22;5546;48.714;8.738;2023-07-16T16:45:23;29.90;50.00
10986;DHT22;5546;48.714;8.738;2023-07-16T16:47:49;30.00;50.80
10986;DHT22;5546;48.714;8.738;2023-07-16T16:50:14;30.20;51.30
10986;DHT22;5546;48.714;8.738;2023-07-16T16:52:40;30.40;53.30
10986;DHT22;5546;48.714;8.738;2023-07-16T16:55:06;29.70;53.20
10986;DHT22;5546;48.714;8.738;2023-07-16T16:57:32;29.60;54.60
10986;DHT22;5546;48.714;8.738;2023-07-16T16:59:57;29.30;54.50
10986;DHT22;5546;48.714;8.738;2023-07-16T17:02:23;29.00;55.70
10986;DHT22;5546;48.714;8.738;2023-07-16T17:04:49;28.70;54.50
10986;DHT22;5546;48.714;8.738;2023-07-16T17:07:15;28.80;55.70
10986;DHT22;5546;48.714;8.738;2023-07-16T17:09:41;28.60;54.90
10986;DHT22;5546;48.714;8.738;2023-07-16T17:12:07;28.80;55.30
10986;DHT22;5546;48.714;8.738;2023-07-16T17:14:35;29.20;54.90
10986;DHT22;5546;48.714;8.738;2023-07-16T17:17:00;29.00;54.40
10986;DHT22;5546;48.714;8.738;2023-07-16T17:19:26;28.80;55.40
10986;DHT22;5546;48.714;8.738;2023-07-16T17:21:51;28.60;55.30
10986;DHT22;5546;48.714;8.738;2023-07-16T17:24:17;28.80;55.90
10986;DHT22;5546;48.714;8.738;2023-07-16T17:26:42;28.90;56.90
10986;DHT22;5546;48.714;8.738;2023-07-16T17:29:08;29.30;55.30
10986;DHT22;5546;48.714;8.738;2023-07-16T17:31:34;29.40;54.40
10986;DHT22;5546;48.714;8.738;2023-07-16T17:34:01;29.50;54.20
10986;DHT22;5546;48.714;8.738;2023-07-16T17:36:27;29.40;54.30
10986;DHT22;5546;48.714;8.738;2023-07-16T17:38:52;29.30;54.70
10986;DHT22;5546;48.714;8.738;2023-07-16T17:41:18;28.20;56.30
10986;DHT22;5546;48.714;8.738;2023-07-16T17:43:44;28.30;57.30
10986;DHT22;5546;48.714;8.738;2023-07-16T17:46:10;28.40;57.40
10986;DHT22;5546;48.714;8.738;2023-07-16T17:48:36;28.40;57.00
10986;DHT22;5546;48.714;8.738;2023-07-16T17:51:02;28.30;57.00
10986;DHT22;5546;48.714;8.738;2023-07-16T17:53:28;28.10;57.50
10986;DHT22;5546;48.714;8.738;2023-07-16T17:55:54;28.30;58.10
10986;DHT22;5546;48.714;8.738;2023-07-16T17:58:20;28.30;59.50
10986;DHT22;5546;48.714;8.738;2023-07-16T18:00:46;28.10;59.10
10986;DHT22;5546;48.714;8.738;2023-07-16T18:05:39;28.20;59.40
10986;DHT22;5546;48.714;8.738;2023-07-16T18:08:05;28.10;60.00
10986;DHT22;5546;48.714;8.738;2023-07-16T18:10:31;27.90;60.70
10986;DHT22;5546;48.714;8.738;2023-07-16T18:12:57;28.10;62.10
10986;DHT22;5546;48.714;8.738;2023-07-16T18:15:23;28.20;62.20